BAW852 EGLL-LKPR
Flight info
| Callsign | BAW852 |
|---|---|
| Flight time | 1h 33m |
| Altitude | 37000 |
| Route | BPK Q295 BRAIN M197 REDFA DCT TACHA DCT NOMKA DCT SUVUT L620 PIKIB T620 LALUK DCT GOLOP |
| Aircraft | A321/M-SDE3FGHIRWY/LB1 |
Departure
| Time | 2026-05-06 14:03 |
|---|---|
| Airport | London Heathrow Airport (EGLL) |
Arrival
| Time | 2026-05-06 15:37 |
|---|---|
| Airport | Václav Havel Airport Prague (LKPR) |
| Time | Latitude | Longitude | Altitude | Speed | Heading |
|---|---|---|---|---|---|
| 2026-05-06 11:59 | 51.47187 | -0.48593 | 86 ft | 0 kts | 269° |
| 2026-05-06 13:52 | 51.47187 | -0.48584 | 86 ft | 3 kts | 269° |
| 2026-05-06 13:52 | 51.47189 | -0.48549 | 89 ft | 3 kts | 261° |
| 2026-05-06 13:52 | 51.47193 | -0.48515 | 90 ft | 3 kts | 248° |
| 2026-05-06 13:52 | 51.47203 | -0.48486 | 89 ft | 3 kts | 220° |
| 2026-05-06 13:53 | 51.47218 | -0.48474 | 90 ft | 1 kts | 180° |
| 2026-05-06 13:55 | 51.47206 | -0.48473 | 90 ft | 4 kts | 179° |
| 2026-05-06 13:55 | 51.47157 | -0.48473 | 86 ft | 8 kts | 179° |
| 2026-05-06 13:55 | 51.47124 | -0.48472 | 88 ft | 4 kts | 179° |
| 2026-05-06 13:55 | 51.47097 | -0.48472 | 89 ft | 0 kts | 179° |
| 2026-05-06 13:56 | 51.47089 | -0.48472 | 89 ft | 2 kts | 179° |
| 2026-05-06 13:57 | 51.47077 | -0.48472 | 89 ft | 5 kts | 179° |
| 2026-05-06 13:57 | 51.47019 | -0.48471 | 89 ft | 12 kts | 180° |
| 2026-05-06 13:57 | 51.46935 | -0.48470 | 88 ft | 11 kts | 180° |
| 2026-05-06 13:57 | 51.46851 | -0.48470 | 86 ft | 13 kts | 180° |
| 2026-05-06 13:58 | 51.46761 | -0.48470 | 86 ft | 12 kts | 181° |
| 2026-05-06 13:58 | 51.46742 | -0.48557 | 86 ft | 11 kts | 269° |
| 2026-05-06 13:58 | 51.46741 | -0.48682 | 86 ft | 10 kts | 268° |
| 2026-05-06 13:58 | 51.46693 | -0.48747 | 88 ft | 7 kts | 186° |
| 2026-05-06 13:59 | 51.46658 | -0.48747 | 86 ft | 0 kts | 179° |
| 2026-05-06 14:00 | 51.46652 | -0.48746 | 86 ft | 3 kts | 179° |
| 2026-05-06 14:00 | 51.46623 | -0.48755 | 88 ft | 5 kts | 198° |
| 2026-05-06 14:01 | 51.46607 | -0.48763 | 90 ft | 5 kts | 198° |
| 2026-05-06 14:01 | 51.46552 | -0.48787 | 88 ft | 9 kts | 187° |
| 2026-05-06 14:01 | 51.46487 | -0.48731 | 88 ft | 12 kts | 124° |
| 2026-05-06 14:01 | 51.46478 | -0.48673 | 87 ft | 0 kts | 89° |
| 2026-05-06 14:02 | 51.46480 | -0.48510 | 86 ft | 47 kts | 89° |
| 2026-05-06 14:03 | 51.46483 | -0.47571 | 86 ft | 119 kts | 89° |
| 2026-05-06 14:03 | 51.46487 | -0.45927 | 97 ft | 172 kts | 89° |
| 2026-05-06 14:03 | 51.46494 | -0.43996 | 760 ft | 172 kts | 85° |
| 2026-05-06 14:03 | 51.46520 | -0.42044 | 1455 ft | 182 kts | 81° |
| 2026-05-06 14:04 | 51.46824 | -0.39997 | 1766 ft | 197 kts | 66° |
| 2026-05-06 14:04 | 51.47550 | -0.38032 | 1962 ft | 214 kts | 47° |
| 2026-05-06 14:04 | 51.48578 | -0.36109 | 2191 ft | 238 kts | 47° |
| 2026-05-06 14:04 | 51.49667 | -0.34034 | 2879 ft | 247 kts | 48° |
| 2026-05-06 14:05 | 51.50776 | -0.31896 | 3677 ft | 251 kts | 48° |
| 2026-05-06 14:05 | 51.51896 | -0.29730 | 4508 ft | 253 kts | 49° |
| 2026-05-06 14:05 | 51.52848 | -0.27321 | 5325 ft | 260 kts | 62° |
| 2026-05-06 14:05 | 51.53479 | -0.24571 | 6107 ft | 265 kts | 64° |
| 2026-05-06 14:06 | 51.54433 | -0.22064 | 6831 ft | 264 kts | 45° |
| 2026-05-06 14:06 | 51.55873 | -0.20236 | 7530 ft | 265 kts | 25° |
| 2026-05-06 14:06 | 51.57570 | -0.19040 | 8276 ft | 269 kts | 20° |
| 2026-05-06 14:06 | 51.59313 | -0.17908 | 8991 ft | 271 kts | 14° |
| 2026-05-06 14:07 | 51.61077 | -0.17090 | 9652 ft | 276 kts | 13° |
| 2026-05-06 14:07 | 51.62948 | -0.16227 | 10242 ft | 285 kts | 13° |
| 2026-05-06 14:07 | 51.64903 | -0.15327 | 10754 ft | 288 kts | 13° |
| 2026-05-06 14:07 | 51.66854 | -0.14423 | 11288 ft | 301 kts | 13° |
| 2026-05-06 14:08 | 51.68947 | -0.13461 | 11435 ft | 323 kts | 14° |
| 2026-05-06 14:08 | 51.71107 | -0.12184 | 11718 ft | 339 kts | 25° |
| 2026-05-06 14:08 | 51.73056 | -0.09950 | 12268 ft | 348 kts | 42° |
| 2026-05-06 14:08 | 51.74571 | -0.06929 | 12844 ft | 356 kts | 57° |
| 2026-05-06 14:09 | 51.75544 | -0.03228 | 13424 ft | 363 kts | 74° |
| 2026-05-06 14:09 | 51.75952 | 0.00823 | 13981 ft | 368 kts | 81° |
| 2026-05-06 14:09 | 51.76286 | 0.04934 | 14506 ft | 373 kts | 81° |
| 2026-05-06 14:09 | 51.76623 | 0.09100 | 15084 ft | 375 kts | 82° |
| 2026-05-06 14:10 | 51.76962 | 0.13286 | 15664 ft | 378 kts | 81° |
| 2026-05-06 14:10 | 51.77303 | 0.17513 | 16200 ft | 382 kts | 81° |
| 2026-05-06 14:10 | 51.77652 | 0.21775 | 16789 ft | 384 kts | 81° |
| 2026-05-06 14:10 | 51.78007 | 0.26062 | 17297 ft | 388 kts | 82° |
| 2026-05-06 14:11 | 51.78365 | 0.30407 | 17826 ft | 391 kts | 82° |
| 2026-05-06 14:11 | 51.78721 | 0.34771 | 18362 ft | 394 kts | 82° |
| 2026-05-06 14:11 | 51.79074 | 0.39179 | 18806 ft | 397 kts | 82° |
| 2026-05-06 14:11 | 51.79424 | 0.43618 | 19317 ft | 399 kts | 82° |
| 2026-05-06 14:12 | 51.79774 | 0.48080 | 19769 ft | 402 kts | 82° |
| 2026-05-06 14:12 | 51.80128 | 0.52584 | 20223 ft | 405 kts | 82° |
| 2026-05-06 14:12 | 51.80481 | 0.57101 | 20688 ft | 407 kts | 83° |
| 2026-05-06 14:12 | 51.80836 | 0.61663 | 21096 ft | 411 kts | 83° |
| 2026-05-06 14:13 | 51.81270 | 0.66232 | 21523 ft | 413 kts | 77° |
| 2026-05-06 14:13 | 51.81962 | 0.70753 | 21939 ft | 416 kts | 76° |
| 2026-05-06 14:13 | 51.82668 | 0.75311 | 22375 ft | 419 kts | 76° |
| 2026-05-06 14:13 | 51.83377 | 0.79887 | 22795 ft | 421 kts | 76° |
| 2026-05-06 14:14 | 51.84111 | 0.84489 | 23224 ft | 424 kts | 75° |
| 2026-05-06 14:14 | 51.84915 | 0.89085 | 23645 ft | 426 kts | 73° |
| 2026-05-06 14:14 | 51.85771 | 0.93698 | 23986 ft | 429 kts | 72° |
| 2026-05-06 14:14 | 51.86649 | 0.98326 | 24373 ft | 431 kts | 72° |
| 2026-05-06 14:15 | 51.87525 | 1.02964 | 24793 ft | 431 kts | 73° |
| 2026-05-06 14:15 | 51.88379 | 1.07550 | 25190 ft | 433 kts | 73° |
| 2026-05-06 14:15 | 51.89238 | 1.12233 | 25554 ft | 435 kts | 73° |
| 2026-05-06 14:15 | 51.90086 | 1.16936 | 25911 ft | 437 kts | 74° |
| 2026-05-06 14:16 | 51.90929 | 1.21671 | 26262 ft | 439 kts | 74° |
| 2026-05-06 14:16 | 51.91771 | 1.26434 | 26609 ft | 441 kts | 74° |
| 2026-05-06 14:16 | 51.92616 | 1.31211 | 26953 ft | 443 kts | 74° |
| 2026-05-06 14:16 | 51.93469 | 1.36019 | 27290 ft | 445 kts | 74° |
| 2026-05-06 14:17 | 51.94325 | 1.40832 | 27628 ft | 447 kts | 74° |
| 2026-05-06 14:17 | 51.95187 | 1.45690 | 27962 ft | 449 kts | 74° |
| 2026-05-06 14:17 | 51.96048 | 1.50564 | 28254 ft | 452 kts | 75° |
| 2026-05-06 14:17 | 51.96913 | 1.55483 | 28546 ft | 455 kts | 75° |
| 2026-05-06 14:18 | 51.97781 | 1.60433 | 28863 ft | 457 kts | 75° |
| 2026-05-06 14:18 | 51.98651 | 1.65400 | 29184 ft | 459 kts | 75° |
| 2026-05-06 14:18 | 51.99517 | 1.70396 | 29502 ft | 461 kts | 75° |
| 2026-05-06 14:18 | 52.00344 | 1.75435 | 29805 ft | 463 kts | 76° |
| 2026-05-06 14:19 | 52.01135 | 1.80509 | 30081 ft | 465 kts | 77° |
| 2026-05-06 14:19 | 52.01905 | 1.85612 | 30325 ft | 466 kts | 77° |
| 2026-05-06 14:19 | 52.02670 | 1.90737 | 30560 ft | 467 kts | 77° |
| 2026-05-06 14:19 | 52.03440 | 1.95868 | 30783 ft | 469 kts | 77° |
| 2026-05-06 14:20 | 52.04222 | 2.01013 | 31050 ft | 469 kts | 77° |
| 2026-05-06 14:20 | 52.05008 | 2.06151 | 31354 ft | 468 kts | 76° |
| 2026-05-06 14:20 | 52.05795 | 2.11279 | 31659 ft | 467 kts | 76° |
| 2026-05-06 14:20 | 52.06579 | 2.16400 | 31949 ft | 467 kts | 77° |
| 2026-05-06 14:21 | 52.07361 | 2.21513 | 32238 ft | 466 kts | 76° |
| 2026-05-06 14:21 | 52.08141 | 2.26617 | 32540 ft | 466 kts | 76° |
| 2026-05-06 14:21 | 52.08917 | 2.31729 | 32845 ft | 465 kts | 76° |
| 2026-05-06 14:21 | 52.09685 | 2.36823 | 33127 ft | 464 kts | 76° |
| 2026-05-06 14:22 | 52.10447 | 2.41924 | 33408 ft | 463 kts | 76° |
| 2026-05-06 14:22 | 52.11206 | 2.47015 | 33710 ft | 463 kts | 77° |
| 2026-05-06 14:22 | 52.11999 | 2.52085 | 33955 ft | 463 kts | 75° |
| 2026-05-06 14:22 | 52.12894 | 2.57109 | 34188 ft | 462 kts | 73° |
| 2026-05-06 14:23 | 52.13864 | 2.62109 | 34368 ft | 463 kts | 72° |
| 2026-05-06 14:23 | 52.14865 | 2.67088 | 34598 ft | 463 kts | 72° |
| 2026-05-06 14:23 | 52.15871 | 2.72078 | 34763 ft | 464 kts | 72° |
| 2026-05-06 14:23 | 52.16858 | 2.77070 | 34974 ft | 464 kts | 73° |
| 2026-05-06 14:24 | 52.17824 | 2.82087 | 35151 ft | 464 kts | 73° |
| 2026-05-06 14:24 | 52.18771 | 2.87116 | 35358 ft | 464 kts | 73° |
| 2026-05-06 14:24 | 52.19707 | 2.92159 | 35530 ft | 465 kts | 73° |
| 2026-05-06 14:24 | 52.20636 | 2.97208 | 35715 ft | 465 kts | 74° |
| 2026-05-06 14:25 | 52.21565 | 3.02258 | 35880 ft | 466 kts | 74° |
| 2026-05-06 14:25 | 52.22500 | 3.07314 | 36074 ft | 466 kts | 74° |
| 2026-05-06 14:25 | 52.23436 | 3.12381 | 36233 ft | 467 kts | 74° |
| 2026-05-06 14:25 | 52.24368 | 3.17447 | 36417 ft | 466 kts | 75° |
| 2026-05-06 14:26 | 52.25021 | 3.22555 | 36553 ft | 466 kts | 84° |
| 2026-05-06 14:26 | 52.25199 | 3.27819 | 36701 ft | 465 kts | 93° |
| 2026-05-06 14:26 | 52.24903 | 3.33052 | 36868 ft | 463 kts | 99° |
| 2026-05-06 14:26 | 52.24468 | 3.38261 | 36939 ft | 464 kts | 99° |
| 2026-05-06 14:27 | 52.23627 | 3.48690 | 36935 ft | 464 kts | 99° |
| 2026-05-06 14:27 | 52.22791 | 3.59111 | 36922 ft | 463 kts | 100° |
| 2026-05-06 14:28 | 52.21941 | 3.69523 | 36928 ft | 462 kts | 100° |
| 2026-05-06 14:28 | 52.21220 | 3.78164 | 36920 ft | 463 kts | 100° |
| 2026-05-06 14:29 | 52.20348 | 3.88559 | 36923 ft | 463 kts | 99° |
| 2026-05-06 14:29 | 52.19463 | 3.98948 | 36916 ft | 463 kts | 99° |
| 2026-05-06 14:30 | 52.18566 | 4.09333 | 36929 ft | 462 kts | 99° |
| 2026-05-06 14:30 | 52.17665 | 4.19700 | 36921 ft | 462 kts | 100° |
| 2026-05-06 14:31 | 52.16755 | 4.30063 | 36923 ft | 462 kts | 100° |
| 2026-05-06 14:31 | 52.15840 | 4.40408 | 36917 ft | 462 kts | 100° |
| 2026-05-06 14:32 | 52.14918 | 4.50751 | 36913 ft | 461 kts | 100° |
| 2026-05-06 14:32 | 52.13983 | 4.61083 | 36912 ft | 461 kts | 100° |
| 2026-05-06 14:33 | 52.13033 | 4.71403 | 36930 ft | 461 kts | 100° |
| 2026-05-06 14:33 | 52.12080 | 4.81727 | 36932 ft | 461 kts | 100° |
| 2026-05-06 14:34 | 52.11122 | 4.92041 | 36916 ft | 461 kts | 100° |
| 2026-05-06 14:34 | 52.10153 | 5.02357 | 36922 ft | 461 kts | 101° |
| 2026-05-06 14:35 | 52.09171 | 5.12664 | 36913 ft | 461 kts | 101° |
| 2026-05-06 14:35 | 52.08183 | 5.22963 | 36908 ft | 461 kts | 101° |
| 2026-05-06 14:36 | 52.07183 | 5.33260 | 36909 ft | 461 kts | 101° |
| 2026-05-06 14:36 | 52.06179 | 5.43559 | 36902 ft | 461 kts | 101° |
| 2026-05-06 14:37 | 52.05166 | 5.53845 | 36902 ft | 461 kts | 101° |
| 2026-05-06 14:37 | 52.04141 | 5.64138 | 36909 ft | 461 kts | 101° |
| 2026-05-06 14:38 | 52.03110 | 5.74348 | 36911 ft | 461 kts | 101° |
| 2026-05-06 14:38 | 52.02065 | 5.84620 | 36902 ft | 461 kts | 102° |
| 2026-05-06 14:39 | 52.01013 | 5.94889 | 36904 ft | 461 kts | 102° |
| 2026-05-06 14:39 | 51.99958 | 6.05164 | 36906 ft | 461 kts | 102° |
| 2026-05-06 14:40 | 51.98892 | 6.15429 | 36905 ft | 461 kts | 102° |
| 2026-05-06 14:40 | 51.97813 | 6.25689 | 36907 ft | 461 kts | 102° |
| 2026-05-06 14:41 | 51.96726 | 6.35938 | 36903 ft | 461 kts | 102° |
| 2026-05-06 14:41 | 51.95628 | 6.46184 | 36890 ft | 461 kts | 102° |
| 2026-05-06 14:42 | 51.94515 | 6.56435 | 36893 ft | 462 kts | 102° |
| 2026-05-06 14:42 | 51.93398 | 6.66676 | 36892 ft | 462 kts | 102° |
| 2026-05-06 14:43 | 51.92276 | 6.76922 | 36894 ft | 462 kts | 102° |
| 2026-05-06 14:43 | 51.91143 | 6.87164 | 36881 ft | 462 kts | 103° |
| 2026-05-06 14:44 | 51.89996 | 6.97418 | 36889 ft | 463 kts | 103° |
| 2026-05-06 14:45 | 51.88271 | 7.12772 | 36883 ft | 462 kts | 103° |
| 2026-05-06 14:45 | 51.87107 | 7.23001 | 36874 ft | 462 kts | 103° |
| 2026-05-06 14:46 | 51.85931 | 7.33226 | 36861 ft | 462 kts | 103° |
| 2026-05-06 14:46 | 51.84749 | 7.43446 | 36865 ft | 463 kts | 103° |
| 2026-05-06 14:47 | 51.83556 | 7.53677 | 36867 ft | 463 kts | 103° |
| 2026-05-06 14:47 | 51.82349 | 7.63906 | 36865 ft | 463 kts | 103° |
| 2026-05-06 14:48 | 51.81138 | 7.74133 | 36865 ft | 463 kts | 103° |
| 2026-05-06 14:48 | 51.79921 | 7.84368 | 36851 ft | 464 kts | 104° |
| 2026-05-06 14:49 | 51.78688 | 7.94590 | 36858 ft | 464 kts | 104° |
| 2026-05-06 14:49 | 51.77445 | 8.04809 | 36859 ft | 464 kts | 104° |
| 2026-05-06 14:50 | 51.76199 | 8.15032 | 36858 ft | 464 kts | 104° |
| 2026-05-06 14:50 | 51.74944 | 8.25241 | 36857 ft | 464 kts | 104° |
| 2026-05-06 14:51 | 51.73683 | 8.35417 | 36844 ft | 464 kts | 104° |
| 2026-05-06 14:51 | 51.72404 | 8.45629 | 36842 ft | 465 kts | 104° |
| 2026-05-06 14:52 | 51.71111 | 8.55843 | 36847 ft | 465 kts | 104° |
| 2026-05-06 14:52 | 51.69813 | 8.66055 | 36852 ft | 465 kts | 105° |
| 2026-05-06 14:53 | 51.68506 | 8.76270 | 36843 ft | 465 kts | 105° |
| 2026-05-06 14:53 | 51.67195 | 8.86476 | 36847 ft | 465 kts | 105° |
| 2026-05-06 14:54 | 51.66030 | 8.95483 | 36845 ft | 465 kts | 105° |
| 2026-05-06 14:54 | 51.64543 | 9.06879 | 36840 ft | 465 kts | 105° |
| 2026-05-06 14:55 | 51.63203 | 9.17071 | 36826 ft | 465 kts | 105° |
| 2026-05-06 14:55 | 51.61845 | 9.27245 | 36824 ft | 465 kts | 105° |
| 2026-05-06 14:56 | 51.60711 | 9.35703 | 36819 ft | 465 kts | 105° |
| 2026-05-06 14:56 | 51.59342 | 9.45888 | 36810 ft | 465 kts | 105° |
| 2026-05-06 14:57 | 51.56618 | 9.66013 | 36811 ft | 465 kts | 105° |
| 2026-05-06 14:58 | 51.55227 | 9.76148 | 36801 ft | 464 kts | 106° |
| 2026-05-06 14:58 | 51.53822 | 9.86276 | 36803 ft | 464 kts | 106° |
| 2026-05-06 14:59 | 51.52430 | 9.96316 | 36814 ft | 464 kts | 106° |
| 2026-05-06 14:59 | 51.51010 | 10.06428 | 36802 ft | 464 kts | 106° |
| 2026-05-06 15:00 | 51.49590 | 10.16516 | 36777 ft | 464 kts | 107° |
| 2026-05-06 15:00 | 51.48162 | 10.26608 | 36788 ft | 464 kts | 107° |
| 2026-05-06 15:01 | 51.46722 | 10.36691 | 36796 ft | 464 kts | 107° |
| 2026-05-06 15:01 | 51.45273 | 10.46764 | 36799 ft | 463 kts | 107° |
| 2026-05-06 15:02 | 51.43788 | 10.56809 | 36800 ft | 463 kts | 108° |
| 2026-05-06 15:02 | 51.42200 | 10.66801 | 36783 ft | 463 kts | 108° |
| 2026-05-06 15:03 | 51.40578 | 10.76782 | 36788 ft | 463 kts | 108° |
| 2026-05-06 15:03 | 51.38967 | 10.86782 | 36794 ft | 464 kts | 108° |
| 2026-05-06 15:04 | 51.37358 | 10.96791 | 36796 ft | 464 kts | 108° |
| 2026-05-06 15:04 | 51.35740 | 11.06785 | 36776 ft | 464 kts | 108° |
| 2026-05-06 15:05 | 51.34114 | 11.16776 | 36785 ft | 464 kts | 109° |
| 2026-05-06 15:05 | 51.32422 | 11.26737 | 36792 ft | 464 kts | 110° |
| 2026-05-06 15:06 | 51.30585 | 11.36539 | 36794 ft | 463 kts | 111° |
| 2026-05-06 15:06 | 51.28690 | 11.46374 | 36793 ft | 463 kts | 111° |
| 2026-05-06 15:06 | 51.27748 | 11.51305 | 36416 ft | 465 kts | 111° |
| 2026-05-06 15:07 | 51.26816 | 11.56243 | 35922 ft | 464 kts | 111° |
| 2026-05-06 15:07 | 51.25890 | 11.61173 | 35408 ft | 464 kts | 111° |
| 2026-05-06 15:07 | 51.24963 | 11.66108 | 34920 ft | 464 kts | 111° |
| 2026-05-06 15:07 | 51.24032 | 11.71044 | 34430 ft | 464 kts | 111° |
| 2026-05-06 15:08 | 51.23098 | 11.75966 | 33967 ft | 462 kts | 111° |
| 2026-05-06 15:08 | 51.22156 | 11.80917 | 33439 ft | 459 kts | 112° |
| 2026-05-06 15:08 | 51.21231 | 11.85768 | 32889 ft | 455 kts | 112° |
| 2026-05-06 15:08 | 51.20309 | 11.90580 | 32348 ft | 452 kts | 112° |
| 2026-05-06 15:09 | 51.19390 | 11.95352 | 31813 ft | 448 kts | 113° |
| 2026-05-06 15:09 | 51.18479 | 12.00076 | 31278 ft | 444 kts | 113° |
| 2026-05-06 15:09 | 51.17579 | 12.04749 | 30771 ft | 440 kts | 113° |
| 2026-05-06 15:09 | 51.16685 | 12.09387 | 30279 ft | 435 kts | 113° |
| 2026-05-06 15:10 | 51.15800 | 12.13974 | 29785 ft | 431 kts | 113° |
| 2026-05-06 15:10 | 51.14922 | 12.18508 | 29207 ft | 426 kts | 113° |
| 2026-05-06 15:10 | 51.14049 | 12.22992 | 28636 ft | 422 kts | 113° |
| 2026-05-06 15:10 | 51.13180 | 12.27430 | 28082 ft | 417 kts | 113° |
| 2026-05-06 15:11 | 51.12319 | 12.31806 | 27540 ft | 413 kts | 112° |
| 2026-05-06 15:11 | 51.11465 | 12.36151 | 27006 ft | 409 kts | 112° |
| 2026-05-06 15:11 | 51.10618 | 12.40459 | 26482 ft | 406 kts | 112° |
| 2026-05-06 15:11 | 51.09788 | 12.44671 | 25953 ft | 402 kts | 112° |
| 2026-05-06 15:12 | 51.08953 | 12.48903 | 25445 ft | 399 kts | 112° |
| 2026-05-06 15:12 | 51.08125 | 12.53093 | 24963 ft | 396 kts | 112° |
| 2026-05-06 15:12 | 51.07300 | 12.57253 | 24472 ft | 393 kts | 111° |
| 2026-05-06 15:12 | 51.06478 | 12.61377 | 23996 ft | 390 kts | 111° |
| 2026-05-06 15:13 | 51.05660 | 12.65469 | 23519 ft | 387 kts | 111° |
| 2026-05-06 15:13 | 51.04847 | 12.69526 | 23015 ft | 384 kts | 111° |
| 2026-05-06 15:13 | 51.04039 | 12.73553 | 22465 ft | 381 kts | 111° |
| 2026-05-06 15:13 | 51.03239 | 12.77549 | 21925 ft | 378 kts | 111° |
| 2026-05-06 15:14 | 51.02445 | 12.81512 | 21400 ft | 375 kts | 111° |
| 2026-05-06 15:14 | 51.01657 | 12.85439 | 20866 ft | 375 kts | 112° |
| 2026-05-06 15:14 | 51.00822 | 12.89545 | 20354 ft | 406 kts | 112° |
| 2026-05-06 15:14 | 50.99918 | 12.93943 | 19846 ft | 429 kts | 111° |
| 2026-05-06 15:15 | 50.98990 | 12.98482 | 19362 ft | 433 kts | 111° |
| 2026-05-06 15:15 | 50.98069 | 13.03028 | 18875 ft | 432 kts | 111° |
| 2026-05-06 15:15 | 50.97157 | 13.07555 | 18402 ft | 430 kts | 111° |
| 2026-05-06 15:15 | 50.96249 | 13.12055 | 17911 ft | 427 kts | 111° |
| 2026-05-06 15:16 | 50.95343 | 13.16517 | 17364 ft | 424 kts | 111° |
| 2026-05-06 15:16 | 50.94438 | 13.20953 | 16891 ft | 421 kts | 111° |
| 2026-05-06 15:16 | 50.93532 | 13.25363 | 16732 ft | 419 kts | 111° |
| 2026-05-06 15:16 | 50.92626 | 13.29757 | 16764 ft | 420 kts | 111° |
| 2026-05-06 15:17 | 50.91716 | 13.34152 | 16772 ft | 420 kts | 111° |
| 2026-05-06 15:17 | 50.90804 | 13.38549 | 16771 ft | 420 kts | 111° |
| 2026-05-06 15:17 | 50.89890 | 13.42950 | 16774 ft | 420 kts | 111° |
| 2026-05-06 15:17 | 50.88979 | 13.47337 | 16776 ft | 420 kts | 111° |
| 2026-05-06 15:18 | 50.88065 | 13.51732 | 16778 ft | 420 kts | 111° |
| 2026-05-06 15:18 | 50.87150 | 13.56119 | 16777 ft | 420 kts | 111° |
| 2026-05-06 15:18 | 50.86231 | 13.60518 | 16778 ft | 420 kts | 111° |
| 2026-05-06 15:18 | 50.85312 | 13.64902 | 16776 ft | 420 kts | 111° |
| 2026-05-06 15:19 | 50.84391 | 13.69285 | 16531 ft | 419 kts | 111° |
| 2026-05-06 15:19 | 50.83471 | 13.73658 | 16278 ft | 418 kts | 111° |
| 2026-05-06 15:19 | 50.82554 | 13.78011 | 16022 ft | 417 kts | 111° |
| 2026-05-06 15:19 | 50.81638 | 13.82345 | 15771 ft | 415 kts | 112° |
| 2026-05-06 15:20 | 50.80712 | 13.86667 | 15511 ft | 413 kts | 114° |
| 2026-05-06 15:20 | 50.79497 | 13.90739 | 15229 ft | 406 kts | 122° |
| 2026-05-06 15:20 | 50.78600 | 13.93304 | 14932 ft | 398 kts | 122° |
| 2026-05-06 15:20 | 50.77279 | 13.97068 | 14605 ft | 385 kts | 122° |
| 2026-05-06 15:21 | 50.76005 | 14.00682 | 14387 ft | 368 kts | 123° |
| 2026-05-06 15:21 | 50.74781 | 14.04147 | 14163 ft | 354 kts | 123° |
| 2026-05-06 15:21 | 50.73600 | 14.07484 | 13915 ft | 343 kts | 123° |
| 2026-05-06 15:21 | 50.72453 | 14.10723 | 13639 ft | 334 kts | 123° |
| 2026-05-06 15:22 | 50.71270 | 14.13828 | 13314 ft | 325 kts | 133° |
| 2026-05-06 15:22 | 50.69618 | 14.16112 | 12930 ft | 311 kts | 152° |
| 2026-05-06 15:22 | 50.67764 | 14.17782 | 12561 ft | 304 kts | 155° |
| 2026-05-06 15:22 | 50.65921 | 14.19365 | 12207 ft | 299 kts | 155° |
| 2026-05-06 15:23 | 50.64100 | 14.20911 | 11837 ft | 295 kts | 155° |
| 2026-05-06 15:23 | 50.62305 | 14.22432 | 11480 ft | 291 kts | 155° |
| 2026-05-06 15:23 | 50.60531 | 14.23936 | 11136 ft | 287 kts | 155° |
| 2026-05-06 15:23 | 50.58781 | 14.25416 | 10806 ft | 284 kts | 155° |
| 2026-05-06 15:24 | 50.57049 | 14.26876 | 10540 ft | 282 kts | 155° |
| 2026-05-06 15:24 | 50.55322 | 14.28324 | 10268 ft | 281 kts | 155° |
| 2026-05-06 15:24 | 50.53598 | 14.29761 | 10002 ft | 280 kts | 155° |
| 2026-05-06 15:24 | 50.51878 | 14.31189 | 9741 ft | 279 kts | 155° |
| 2026-05-06 15:25 | 50.50166 | 14.32605 | 9452 ft | 277 kts | 155° |
| 2026-05-06 15:25 | 50.48461 | 14.34010 | 9161 ft | 276 kts | 155° |
| 2026-05-06 15:25 | 50.46759 | 14.35405 | 8873 ft | 276 kts | 155° |
| 2026-05-06 15:25 | 50.45059 | 14.36793 | 8562 ft | 274 kts | 155° |
| 2026-05-06 15:26 | 50.43368 | 14.38169 | 8258 ft | 273 kts | 155° |
| 2026-05-06 15:26 | 50.41704 | 14.39503 | 7954 ft | 272 kts | 155° |
| 2026-05-06 15:26 | 50.40032 | 14.40836 | 7762 ft | 269 kts | 155° |
| 2026-05-06 15:26 | 50.38351 | 14.42172 | 7770 ft | 272 kts | 155° |
| 2026-05-06 15:27 | 50.36664 | 14.43517 | 7774 ft | 272 kts | 155° |
| 2026-05-06 15:27 | 50.34974 | 14.44860 | 7758 ft | 272 kts | 155° |
| 2026-05-06 15:27 | 50.33284 | 14.46194 | 7772 ft | 272 kts | 155° |
| 2026-05-06 15:27 | 50.31594 | 14.47530 | 7778 ft | 272 kts | 155° |
| 2026-05-06 15:28 | 50.29937 | 14.48846 | 7748 ft | 260 kts | 155° |
| 2026-05-06 15:28 | 50.28354 | 14.50105 | 7581 ft | 251 kts | 155° |
| 2026-05-06 15:28 | 50.26824 | 14.51323 | 7429 ft | 240 kts | 155° |
| 2026-05-06 15:28 | 50.25354 | 14.52404 | 7233 ft | 227 kts | 166° |
| 2026-05-06 15:29 | 50.23830 | 14.52592 | 7035 ft | 215 kts | 183° |
| 2026-05-06 15:29 | 50.22359 | 14.52446 | 6837 ft | 210 kts | 185° |
| 2026-05-06 15:29 | 50.20905 | 14.52260 | 6642 ft | 209 kts | 185° |
| 2026-05-06 15:29 | 50.19453 | 14.52062 | 6453 ft | 209 kts | 185° |
| 2026-05-06 15:30 | 50.18005 | 14.51863 | 6267 ft | 209 kts | 185° |
| 2026-05-06 15:30 | 50.16561 | 14.51667 | 6068 ft | 208 kts | 185° |
| 2026-05-06 15:30 | 50.15115 | 14.51469 | 5864 ft | 209 kts | 185° |
| 2026-05-06 15:30 | 50.13668 | 14.51273 | 5659 ft | 209 kts | 185° |
| 2026-05-06 15:31 | 50.12221 | 14.51076 | 5457 ft | 209 kts | 185° |
| 2026-05-06 15:31 | 50.10775 | 14.50874 | 5255 ft | 207 kts | 185° |
| 2026-05-06 15:31 | 50.09368 | 14.50677 | 5055 ft | 199 kts | 185° |
| 2026-05-06 15:32 | 50.06709 | 14.50284 | 4690 ft | 187 kts | 185° |
| 2026-05-06 15:32 | 50.05417 | 14.50095 | 4521 ft | 186 kts | 185° |
| 2026-05-06 15:32 | 50.04168 | 14.49606 | 4327 ft | 187 kts | 207° |
| 2026-05-06 15:32 | 50.03133 | 14.48399 | 4006 ft | 188 kts | 226° |
| 2026-05-06 15:33 | 50.02428 | 14.46723 | 3797 ft | 183 kts | 245° |
| 2026-05-06 15:33 | 50.02136 | 14.44856 | 3650 ft | 175 kts | 265° |
| 2026-05-06 15:33 | 50.02234 | 14.42992 | 3499 ft | 173 kts | 283° |
| 2026-05-06 15:33 | 50.02701 | 14.41277 | 3311 ft | 173 kts | 301° |
| 2026-05-06 15:34 | 50.03415 | 14.39777 | 3104 ft | 172 kts | 305° |
| 2026-05-06 15:34 | 50.04132 | 14.38302 | 2880 ft | 171 kts | 305° |
| 2026-05-06 15:34 | 50.04849 | 14.36826 | 2655 ft | 171 kts | 306° |
| 2026-05-06 15:34 | 50.05552 | 14.35377 | 2451 ft | 161 kts | 306° |
| 2026-05-06 15:35 | 50.06207 | 14.34029 | 2226 ft | 152 kts | 305° |
| 2026-05-06 15:35 | 50.06833 | 14.32739 | 2020 ft | 147 kts | 306° |
| 2026-05-06 15:35 | 50.07442 | 14.31481 | 1827 ft | 144 kts | 306° |
| 2026-05-06 15:35 | 50.08038 | 14.30251 | 1632 ft | 141 kts | 306° |
| 2026-05-06 15:36 | 50.08619 | 14.29049 | 1445 ft | 136 kts | 304° |
| 2026-05-06 15:36 | 50.09186 | 14.27879 | 1268 ft | 135 kts | 305° |
| 2026-05-06 15:36 | 50.09707 | 14.26792 | 1212 ft | 100 kts | 307° |
| 2026-05-06 15:36 | 50.09985 | 14.26226 | 1192 ft | 55 kts | 307° |
| 2026-05-06 15:37 | 50.10198 | 14.25791 | 1185 ft | 29 kts | 313° |
| 2026-05-06 15:37 | 50.10332 | 14.25661 | 1184 ft | 20 kts | 339° |
| 2026-05-06 15:37 | 50.10451 | 14.25666 | 1184 ft | 11 kts | 13° |
| 2026-05-06 15:37 | 50.10481 | 14.25678 | 1184 ft | 9 kts | 16° |
| 2026-05-06 15:38 | 50.10566 | 14.25745 | 1183 ft | 16 kts | 33° |
| 2026-05-06 15:38 | 50.10664 | 14.25851 | 1181 ft | 19 kts | 36° |
| 2026-05-06 15:38 | 50.10783 | 14.25980 | 1174 ft | 23 kts | 34° |
| 2026-05-06 15:38 | 50.10926 | 14.26131 | 1167 ft | 27 kts | 34° |
| 2026-05-06 15:39 | 50.11060 | 14.26274 | 1164 ft | 17 kts | 37° |
| 2026-05-06 15:39 | 50.11077 | 14.26441 | 1167 ft | 12 kts | 98° |
| 2026-05-06 15:39 | 50.11070 | 14.26515 | 1171 ft | 5 kts | 102° |
| 2026-05-06 15:39 | 50.11047 | 14.26581 | 1171 ft | 10 kts | 131° |
| 2026-05-06 15:40 | 50.10978 | 14.26656 | 1171 ft | 12 kts | 155° |
| 2026-05-06 15:40 | 50.10907 | 14.26675 | 1176 ft | 9 kts | 216° |